Time;durP1;ratioP1;P1;durP2;ratioP2;P2;SDS_P1;SDS_P2;PMS_P1;PMS_P2;Temp;Humidity;BMP_temperature;BMP_pressure;BME280_temperature;BME280_humidity;BME280_pressure;Samples;Min_cycle;Max_cycle;Signal;HPM_P1;HPM_P2
2021/09/18 00:00:26;;;;;;;18.00;16.07;;;15.80;99.90;;;;;;8234072;28;20847;-77
2021/09/18 00:04:27;;;;;;;20.63;15.97;;;15.70;99.90;;;;;;8260818;28;20272;-79
2021/09/18 00:08:27;;;;;;;20.10;17.13;;;15.70;99.90;;;;;;8252896;28;20460;-77
2021/09/18 00:12:28;;;;;;;22.43;16.50;;;15.80;99.90;;;;;;8253455;28;20174;-78
2021/09/18 00:16:29;;;;;;;19.33;14.93;;;15.80;99.90;;;;;;8251341;28;20318;-79
2021/09/18 00:20:30;;;;;;;21.20;17.13;;;15.80;99.90;;;;;;8243289;28;20196;-78
2021/09/18 00:24:31;;;;;;;22.83;16.57;;;15.80;99.90;;;;;;8251913;28;20240;-78
2021/09/18 00:28:31;;;;;;;19.90;17.60;;;15.80;99.90;;;;;;8249829;28;20451;-77
2021/09/18 00:32:32;;;;;;;19.27;16.93;;;15.80;99.90;;;;;;8265871;28;20551;-77
2021/09/18 00:36:33;;;;;;;24.70;15.27;;;15.70;99.90;;;;;;8255633;28;20188;-78
2021/09/18 00:40:35;;;;;;;25.30;16.17;;;15.70;99.90;;;;;;8241277;28;20556;-79
2021/09/18 00:44:35;;;;;;;18.03;14.47;;;15.60;99.90;;;;;;8258329;28;20943;-80
2021/09/18 00:48:36;;;;;;;20.43;13.40;;;15.60;99.90;;;;;;8258055;28;20486;-78
2021/09/18 00:52:36;;;;;;;20.43;15.13;;;15.50;99.90;;;;;;8257181;28;20217;-77
2021/09/18 00:56:37;;;;;;;16.17;13.63;;;15.40;99.90;;;;;;8294582;28;20184;-77
2021/09/18 01:00:38;;;;;;;16.23;13.67;;;15.40;99.90;;;;;;8283384;28;20176;-77
2021/09/18 01:04:40;;;;;;;16.57;12.47;;;15.30;99.90;;;;;;8304562;28;20223;-77
2021/09/18 01:08:42;;;;;;;16.57;13.60;;;15.30;99.90;;;;;;8307549;28;20423;-77
2021/09/18 01:13:06;;;;;;;16.53;14.13;;;15.20;99.90;;;;;;8306267;28;20498;-77
2021/09/18 01:17:06;;;;;;;19.30;13.40;;;15.10;99.90;;;;;;8286386;28;20430;-77
2021/09/18 01:21:10;;;;;;;18.97;13.90;;;15.10;99.90;;;;;;8285520;28;20936;-77
2021/09/18 01:25:11;;;;;;;21.07;14.80;;;15.00;99.90;;;;;;8302586;28;20204;-77
2021/09/18 01:29:11;;;;;;;20.50;14.67;;;15.00;99.90;;;;;;8301596;28;20435;-77
2021/09/18 01:33:12;;;;;;;20.67;15.23;;;14.90;99.90;;;;;;8302453;28;20220;-77
2021/09/18 01:37:13;;;;;;;17.17;13.50;;;14.90;99.90;;;;;;8302550;28;20188;-77
2021/09/18 01:41:13;;;;;;;19.87;15.43;;;14.80;99.90;;;;;;8301923;28;20168;-77
2021/09/18 01:45:15;;;;;;;18.60;15.10;;;14.80;99.90;;;;;;8302200;28;20543;-77
2021/09/18 01:49:18;;;;;;;19.43;15.17;;;14.70;99.90;;;;;;8300718;28;20364;-77
2021/09/18 01:53:22;;;;;;;19.80;15.37;;;14.70;99.90;;;;;;8285259;28;20423;-77
2021/09/18 01:57:23;;;;;;;23.77;17.77;;;14.70;99.90;;;;;;8302960;28;20420;-77
2021/09/18 02:01:23;;;;;;;25.37;19.30;;;14.70;99.90;;;;;;8301857;28;20418;-77
2021/09/18 02:05:26;;;;;;;28.07;18.40;;;14.70;99.90;;;;;;8301757;28;20200;-77
2021/09/18 02:09:27;;;;;;;21.60;16.40;;;14.70;99.90;;;;;;8284263;28;20184;-77
2021/09/18 02:13:28;;;;;;;33.00;19.47;;;14.60;99.90;;;;;;8301590;28;20415;-77
2021/09/18 02:17:28;;;;;;;23.47;18.60;;;14.60;99.90;;;;;;8301937;28;20176;-77
2021/09/18 02:21:29;;;;;;;19.23;15.23;;;14.60;99.90;;;;;;8301319;28;20489;-77
2021/09/18 02:25:30;;;;;;;25.23;19.93;;;14.60;99.90;;;;;;8301598;28;20232;-77
2021/09/18 02:29:31;;;;;;;31.10;20.50;;;14.60;99.90;;;;;;8300978;28;20255;-77
2021/09/18 02:33:31;;;;;;;24.90;18.40;;;14.60;99.90;;;;;;8300968;28;20470;-77
2021/09/18 02:37:33;;;;;;;25.97;18.60;;;14.60;99.90;;;;;;8301139;28;20180;-77
2021/09/18 02:41:33;;;;;;;24.87;15.53;;;14.60;99.90;;;;;;8300594;28;20192;-77
2021/09/18 02:45:34;;;;;;;28.67;19.10;;;14.50;99.90;;;;;;8299312;28;20466;-77
2021/09/18 02:49:35;;;;;;;23.80;17.07;;;14.50;99.90;;;;;;8299777;28;20219;-76
2021/09/18 02:53:35;;;;;;;26.30;18.87;;;14.50;99.90;;;;;;8300171;28;20173;-77
2021/09/18 02:57:36;;;;;;;25.40;18.43;;;14.50;99.90;;;;;;8301219;28;20182;-77
2021/09/18 03:01:37;;;;;;;23.60;16.60;;;14.50;99.90;;;;;;8299440;28;20178;-77
2021/09/18 03:05:38;;;;;;;22.13;16.70;;;14.50;99.90;;;;;;8299883;28;20655;-77
2021/09/18 03:09:38;;;;;;;23.20;16.10;;;14.40;99.90;;;;;;8299910;28;20407;-77
2021/09/18 03:13:39;;;;;;;23.57;17.30;;;14.30;99.90;;;;;;8298360;28;20229;-77
2021/09/18 03:17:40;;;;;;;23.07;17.47;;;14.30;99.90;;;;;;8299582;28;20172;-77
2021/09/18 03:21:40;;;;;;;22.90;16.47;;;14.30;99.90;;;;;;8298080;28;20183;-77
2021/09/18 03:25:43;;;;;;;23.07;16.27;;;14.20;99.90;;;;;;8299215;28;20208;-77
2021/09/18 03:29:44;;;;;;;22.93;15.33;;;14.20;99.90;;;;;;8299559;28;20608;-77
2021/09/18 03:33:45;;;;;;;34.43;18.20;;;14.10;99.90;;;;;;8281419;28;20470;-77
2021/09/18 03:37:46;;;;;;;22.13;16.20;;;14.10;99.90;;;;;;8281330;28;20577;-77
2021/09/18 03:41:46;;;;;;;23.60;16.60;;;14.10;99.90;;;;;;8298348;28;20441;-77
2021/09/18 03:45:47;;;;;;;29.17;17.23;;;14.00;99.90;;;;;;8298806;28;20643;-77
2021/09/18 03:49:48;;;;;;;22.10;15.17;;;14.00;99.90;;;;;;8298786;28;20566;-77
2021/09/18 03:53:48;;;;;;;19.83;14.20;;;13.90;99.90;;;;;;8297814;28;20168;-77
2021/09/18 03:57:49;;;;;;;20.97;15.63;;;13.80;99.90;;;;;;8299387;28;20167;-77
2021/09/18 04:01:50;;;;;;;19.47;15.37;;;13.80;99.90;;;;;;8281070;28;20265;-77
2021/09/18 04:05:50;;;;;;;21.20;15.40;;;13.80;99.90;;;;;;8299624;28;20292;-77
2021/09/18 04:09:51;;;;;;;20.83;15.87;;;13.80;99.90;;;;;;8297116;28;20217;-77
2021/09/18 04:13:52;;;;;;;24.03;17.17;;;13.70;99.90;;;;;;8299032;28;20179;-77
2021/09/18 04:17:52;;;;;;;17.40;13.90;;;13.70;99.90;;;;;;8298642;28;20179;-77
2021/09/18 04:21:53;;;;;;;25.03;15.43;;;13.70;99.90;;;;;;8297920;28;20429;-77
2021/09/18 04:25:54;;;;;;;21.57;15.13;;;13.60;99.90;;;;;;8297584;28;20559;-77
2021/09/18 04:29:54;;;;;;;21.77;15.20;;;13.60;99.90;;;;;;8299388;28;20179;-77
2021/09/18 04:33:55;;;;;;;21.90;16.67;;;13.60;99.90;;;;;;8301263;28;20192;-77
2021/09/18 04:37:55;;;;;;;24.60;16.50;;;13.50;99.90;;;;;;8239706;28;20235;-77
2021/09/18 04:41:56;;;;;;;18.40;15.17;;;13.50;99.90;;;;;;8238512;28;20181;-78
2021/09/18 04:45:57;;;;;;;26.83;17.67;;;13.50;99.90;;;;;;8239191;28;20205;-77
2021/09/18 04:49:57;;;;;;;25.47;17.03;;;13.50;99.90;;;;;;8238769;28;20251;-77
2021/09/18 04:53:58;;;;;;;23.80;16.47;;;13.50;99.90;;;;;;8238849;28;20283;-77
2021/09/18 04:57:58;;;;;;;18.90;15.20;;;13.40;99.90;;;;;;8239541;28;20254;-77
2021/09/18 05:01:59;;;;;;;25.23;17.63;;;13.40;99.90;;;;;;8238816;28;20180;-77
2021/09/18 05:06:00;;;;;;;23.37;17.90;;;13.40;99.90;;;;;;8238682;28;20628;-77
2021/09/18 05:10:00;;;;;;;18.83;14.53;;;13.40;99.90;;;;;;8239029;28;20205;-77
2021/09/18 05:14:01;;;;;;;25.00;18.43;;;13.40;99.90;;;;;;8239516;28;20302;-77
2021/09/18 05:18:02;;;;;;;30.27;18.53;;;13.40;99.90;;;;;;8238953;28;20169;-77
2021/09/18 05:22:03;;;;;;;28.20;18.47;;;13.40;99.90;;;;;;8238328;28;20181;-77
2021/09/18 05:26:03;;;;;;;30.57;18.00;;;13.30;99.90;;;;;;8237208;28;20215;-77
2021/09/18 05:30:06;;;;;;;30.50;18.43;;;13.40;99.90;;;;;;8239217;28;20609;-77
2021/09/18 05:34:06;;;;;;;31.20;20.40;;;13.40;99.90;;;;;;8238337;28;20266;-77
2021/09/18 05:38:07;;;;;;;34.60;19.03;;;13.40;99.90;;;;;;8236958;28;20427;-77
2021/09/18 05:42:08;;;;;;;25.90;18.70;;;13.40;99.90;;;;;;8236733;28;20240;-78
2021/09/18 05:46:09;;;;;;;30.80;19.67;;;13.50;99.90;;;;;;8235702;28;20203;-77
2021/09/18 05:50:10;;;;;;;37.63;22.43;;;13.60;99.90;;;;;;8237178;28;20479;-78
2021/09/18 05:54:10;;;;;;;35.83;20.97;;;13.70;99.90;;;;;;8237600;28;20193;-77
2021/09/18 05:58:11;;;;;;;27.53;19.43;;;13.80;99.90;;;;;;8236861;28;20518;-77
2021/09/18 06:02:12;;;;;;;35.47;21.20;;;13.90;99.90;;;;;;8237656;28;20173;-78
2021/09/18 06:06:12;;;;;;;25.90;19.60;;;14.00;99.90;;;;;;8237292;28;20211;-77
2021/09/18 06:10:13;;;;;;;30.23;19.50;;;14.10;99.90;;;;;;8240928;28;20201;-78
2021/09/18 06:14:13;;;;;;;33.83;22.03;;;14.30;99.90;;;;;;8240702;28;20181;-77
2021/09/18 06:18:14;;;;;;;29.57;18.97;;;14.40;99.90;;;;;;8238379;28;20170;-78
2021/09/18 06:22:15;;;;;;;25.30;18.60;;;14.60;99.90;;;;;;8240334;28;20239;-78
2021/09/18 06:26:16;;;;;;;25.27;18.60;;;14.80;99.90;;;;;;8240462;28;20205;-78
2021/09/18 06:30:17;;;;;;;23.07;17.73;;;14.90;99.90;;;;;;8241588;28;20192;-78
2021/09/18 06:34:18;;;;;;;26.80;16.30;;;15.10;99.90;;;;;;8244083;28;20445;-78
2021/09/18 06:38:21;;;;;;;25.20;17.60;;;15.30;99.90;;;;;;8250980;28;20170;-78
2021/09/18 06:42:22;;;;;;;22.70;15.13;;;15.40;99.90;;;;;;8237655;28;20177;-78
2021/09/18 06:46:23;;;;;;;20.27;16.30;;;15.60;99.90;;;;;;8238870;28;20565;-78
2021/09/18 06:50:23;;;;;;;21.47;17.60;;;15.80;99.90;;;;;;8248002;28;20217;-78
2021/09/18 06:54:24;;;;;;;19.63;15.63;;;16.00;99.90;;;;;;8250190;28;20205;-77
2021/09/18 06:58:25;;;;;;;18.40;13.73;;;16.20;99.90;;;;;;8246105;28;20178;-77
2021/09/18 07:02:25;;;;;;;20.17;13.90;;;16.40;99.90;;;;;;8255690;28;20283;-77
2021/09/18 07:06:26;;;;;;;22.90;14.20;;;16.60;99.90;;;;;;8268201;28;20271;-77
2021/09/18 07:10:27;;;;;;;20.67;12.70;;;16.80;99.90;;;;;;8259435;28;20174;-77
2021/09/18 07:14:28;;;;;;;15.37;10.63;;;17.00;99.90;;;;;;8268767;28;20677;-78
2021/09/18 07:18:28;;;;;;;25.77;11.13;;;17.20;99.90;;;;;;8268405;28;20427;-77
2021/09/18 07:22:29;;;;;;;16.43;11.70;;;17.40;99.90;;;;;;8269203;28;20597;-77
2021/09/18 07:26:30;;;;;;;15.57;11.80;;;17.70;99.90;;;;;;8269417;28;20211;-77
2021/09/18 07:30:30;;;;;;;14.53;11.23;;;18.00;99.90;;;;;;8269629;28;20255;-78
2021/09/18 07:34:31;;;;;;;14.37;10.40;;;18.40;99.90;;;;;;8254780;28;20213;-78
2021/09/18 07:38:32;;;;;;;16.63;10.67;;;18.70;99.90;;;;;;8277622;28;20170;-77
2021/09/18 07:42:33;;;;;;;11.30;10.17;;;19.00;99.90;;;;;;8280764;28;20180;-76
2021/09/18 07:46:34;;;;;;;14.33;11.30;;;19.40;99.90;;;;;;8268741;28;20208;-77
2021/09/18 07:50:34;;;;;;;12.27;9.17;;;19.60;99.90;;;;;;8272312;28;20225;-77
2021/09/18 07:54:35;;;;;;;11.33;10.10;;;19.80;99.90;;;;;;8255661;28;20435;-77
2021/09/18 07:58:35;;;;;;;11.53;9.80;;;20.00;99.90;;;;;;8256175;28;20243;-77
2021/09/18 08:02:36;;;;;;;11.37;9.50;;;20.10;99.90;;;;;;8267533;28;20177;-78
2021/09/18 08:06:37;;;;;;;14.37;11.43;;;20.30;99.90;;;;;;8270307;28;20215;-77
2021/09/18 08:10:37;;;;;;;18.93;13.60;;;20.50;99.80;;;;;;8270359;28;20505;-77
2021/09/18 08:14:38;;;;;;;20.93;15.67;;;20.50;99.40;;;;;;8266835;28;20638;-78
2021/09/18 08:18:39;;;;;;;26.47;16.10;;;20.60;98.80;;;;;;8267714;28;20174;-78
2021/09/18 08:22:40;;;;;;;20.33;14.93;;;20.60;98.50;;;;;;8256005;28;20187;-78
2021/09/18 08:26:40;;;;;;;19.60;15.73;;;20.90;98.30;;;;;;8269266;28;20674;-77
2021/09/18 08:30:41;;;;;;;20.50;16.97;;;21.20;98.10;;;;;;8271288;28;20411;-78
2021/09/18 08:34:42;;;;;;;18.47;15.37;;;21.40;97.50;;;;;;8246630;28;20613;-78
2021/09/18 08:38:42;;;;;;;23.40;16.00;;;21.60;97.00;;;;;;8264918;28;20177;-78
2021/09/18 08:42:43;;;;;;;22.10;15.77;;;21.80;96.70;;;;;;8261445;28;20196;-77
2021/09/18 08:46:44;;;;;;;24.47;18.40;;;22.00;96.40;;;;;;8281971;28;20212;-77
2021/09/18 08:50:45;;;;;;;23.57;17.40;;;22.20;96.40;;;;;;8271181;28;20442;-77
2021/09/18 08:54:46;;;;;;;21.83;16.23;;;22.30;95.60;;;;;;8266598;28;20174;-77
2021/09/18 08:58:47;;;;;;;24.00;17.40;;;22.40;95.90;;;;;;8259044;28;20562;-78
2021/09/18 09:02:54;;;;;;;31.93;21.40;;;22.50;95.10;;;;;;8227650;28;20220;-77
2021/09/18 09:06:54;;;;;;;20.83;17.53;;;22.50;94.70;;;;;;8259300;28;20441;-77
2021/09/18 09:10:55;;;;;;;29.80;19.93;;;22.40;94.80;;;;;;8259140;28;20440;-76
2021/09/18 09:14:57;;;;;;;23.73;18.33;;;22.60;94.50;;;;;;8257976;28;20629;-76
2021/09/18 09:18:58;;;;;;;27.50;17.63;;;22.80;94.60;;;;;;8254814;28;20181;-77
2021/09/18 09:22:59;;;;;;;26.50;20.27;;;23.20;94.50;;;;;;8270434;28;20773;-77
2021/09/18 09:27:09;;;;;;;30.50;22.20;;;23.60;93.90;;;;;;8259726;28;20201;-77
2021/09/18 09:31:13;;;;;;;33.80;21.97;;;24.10;92.80;;;;;;8275586;28;20180;-77
2021/09/18 09:35:15;;;;;;;37.90;20.60;;;24.30;92.10;;;;;;8250908;28;20477;-77
2021/09/18 09:39:21;;;;;;;28.90;22.60;;;24.80;92.10;;;;;;8248045;28;20849;-77
2021/09/18 09:43:22;;;;;;;35.13;23.47;;;25.20;91.40;;;;;;8239134;28;20436;-79
2021/09/18 09:47:23;;;;;;;35.47;23.67;;;25.50;90.80;;;;;;8271456;28;20488;-77
2021/09/18 09:51:27;;;;;;;26.87;22.20;;;25.80;90.50;;;;;;8268643;28;20288;-77
2021/09/18 09:55:28;;;;;;;39.30;29.07;;;26.50;90.00;;;;;;8258184;28;20189;-77
2021/09/18 09:59:29;;;;;;;29.67;24.87;;;27.00;88.00;;;;;;8274663;28;20439;-77
2021/09/18 10:03:29;;;;;;;41.20;30.57;;;26.90;88.20;;;;;;8250563;28;20455;-78
2021/09/18 10:07:31;;;;;;;36.23;26.33;;;27.10;86.20;;;;;;8266814;28;20296;-77
2021/09/18 10:11:34;;;;;;;39.60;29.17;;;27.70;85.80;;;;;;8273105;28;20177;-78
2021/09/18 10:15:35;;;;;;;45.50;32.40;;;27.80;83.60;;;;;;8258940;28;20496;-78
2021/09/18 10:23:40;;;;;;;36.20;28.80;;;27.60;83.50;;;;;;8272846;28;20483;-77
2021/09/18 10:27:56;;;;;;;39.53;27.00;;;27.90;82.90;;;;;;8253081;28;20464;-77
2021/09/18 10:32:02;;;;;;;34.53;26.93;;;28.10;82.40;;;;;;8269558;28;20868;-76
2021/09/18 10:36:12;;;;;;;38.37;29.20;;;28.40;79.90;;;;;;8239164;28;20446;-76
2021/09/18 10:40:15;;;;;;;36.90;27.90;;;28.40;76.90;;;;;;8231585;28;20445;-82
2021/09/18 10:44:18;;;;;;;35.20;27.37;;;27.80;77.90;;;;;;8245424;28;20487;-82
2021/09/18 10:48:40;;;;;;;36.03;25.33;;;27.40;78.60;;;;;;8229637;28;20459;-77
2021/09/18 10:52:41;;;;;;;29.93;23.50;;;26.90;78.70;;;;;;8253769;28;20487;-82
2021/09/18 10:57:02;;;;;;;31.47;22.60;;;26.80;80.30;;;;;;8270007;28;20448;-76
2021/09/18 11:01:03;;;;;;;33.70;22.77;;;26.60;81.10;;;;;;8243001;28;20185;-77
2021/09/18 11:05:08;;;;;;;28.27;20.07;;;26.80;80.10;;;;;;8262721;28;20464;-77
2021/09/18 11:09:09;;;;;;;31.73;24.00;;;26.90;78.00;;;;;;8270293;28;20188;-77
2021/09/18 11:13:11;;;;;;;36.23;24.93;;;26.80;77.90;;;;;;8268777;28;20413;-77
2021/09/18 11:17:34;;;;;;;30.73;22.67;;;26.70;78.60;;;;;;8268934;28;20184;-77
2021/09/18 11:21:40;;;;;;;34.97;26.90;;;26.80;79.00;;;;;;8279440;28;20506;-76
2021/09/18 11:25:46;;;;;;;36.40;28.80;;;27.10;77.60;;;;;;8284871;28;20459;-77
2021/09/18 11:29:50;;;;;;;37.10;25.10;;;27.30;77.60;;;;;;8275308;28;20440;-77
2021/09/18 11:33:51;;;;;;;40.77;29.00;;;27.60;77.40;;;;;;8291834;28;20436;-77
2021/09/18 11:37:51;;;;;;;33.40;27.20;;;27.90;76.80;;;;;;8275352;28;20435;-77
2021/09/18 11:41:52;;;;;;;34.13;25.00;;;27.80;75.80;;;;;;8280885;28;20720;-77
2021/09/18 11:45:53;;;;;;;28.60;20.83;;;27.80;75.50;;;;;;8304016;28;20223;-77
2021/09/18 11:49:54;;;;;;;37.80;27.10;;;27.80;74.10;;;;;;8292251;28;20216;-77
2021/09/18 11:54:06;;;;;;;39.03;27.87;;;27.90;74.00;;;;;;8271403;28;20228;-77
2021/09/18 11:58:19;;;;;;;38.50;26.10;;;27.90;74.40;;;;;;8250950;28;20441;-77
2021/09/18 12:02:32;;;;;;;33.03;25.60;;;27.40;74.00;;;;;;8271944;28;20405;-76
2021/09/18 12:06:33;;;;;;;28.70;22.30;;;27.10;75.60;;;;;;8295900;28;20513;-77
2021/09/18 12:10:34;;;;;;;41.10;25.13;;;26.80;75.60;;;;;;8286671;28;20498;-77
2021/09/18 12:14:36;;;;;;;32.40;23.67;;;26.30;76.60;;;;;;8274665;28;20534;-79
2021/09/18 12:18:39;;;;;;;32.37;23.40;;;26.20;77.40;;;;;;8245689;28;20176;-78
2021/09/18 12:22:40;;;;;;;33.93;22.80;;;26.50;76.00;;;;;;8266063;28;20467;-78
2021/09/18 12:26:41;;;;;;;35.23;24.17;;;26.70;75.90;;;;;;8264978;28;20959;-77
2021/09/18 12:30:43;;;;;;;38.57;27.70;;;27.00;75.10;;;;;;8268522;28;20624;-77
2021/09/18 12:34:44;;;;;;;22.73;19.47;;;27.40;75.50;;;;;;8283004;28;20514;-77
2021/09/18 12:38:46;;;;;;;26.03;19.53;;;27.70;74.10;;;;;;8265830;28;20436;-77
2021/09/18 12:43:05;;;;;;;22.23;17.73;;;27.90;73.30;;;;;;8262356;28;20196;-77
2021/09/18 12:47:06;;;;;;;24.90;18.90;;;28.00;72.40;;;;;;8262539;28;20452;-77
2021/09/18 12:51:19;;;;;;;37.43;22.97;;;28.00;72.20;;;;;;8266023;28;20463;-77
2021/09/18 12:55:21;;;;;;;30.23;21.17;;;28.20;71.20;;;;;;8270440;28;20178;-77
2021/09/18 12:59:22;;;;;;;22.43;18.80;;;28.20;71.60;;;;;;8273304;28;20420;-77
2021/09/18 13:03:22;;;;;;;25.50;18.73;;;28.30;70.90;;;;;;8267938;28;20428;-77
2021/09/18 13:07:24;;;;;;;28.07;20.20;;;28.50;71.80;;;;;;8266489;28;20212;-77
2021/09/18 13:11:30;;;;;;;24.33;17.53;;;28.30;70.80;;;;;;8267893;28;20184;-77
2021/09/18 13:15:32;;;;;;;24.47;18.93;;;28.00;71.10;;;;;;8246585;28;20491;-77
2021/09/18 13:19:52;;;;;;;23.83;18.33;;;27.90;70.30;;;;;;8289195;28;20930;-77
2021/09/18 13:23:52;;;;;;;23.37;17.50;;;27.80;70.00;;;;;;8284611;28;20509;-77
2021/09/18 13:27:53;;;;;;;23.37;18.50;;;27.70;70.10;;;;;;8269882;28;20479;-77
2021/09/18 13:31:54;;;;;;;37.80;27.57;;;27.50;70.30;;;;;;8303190;28;20255;-76
2021/09/18 13:35:54;;;;;;;19.13;16.83;;;27.30;70.30;;;;;;8278722;28;20216;-76
2021/09/18 13:39:55;;;;;;;24.43;16.67;;;27.20;70.30;;;;;;8291552;28;20230;-77
2021/09/18 13:43:58;;;;;;;20.47;15.27;;;27.40;71.70;;;;;;8284102;28;20180;-77
2021/09/18 13:47:58;;;;;;;16.50;13.23;;;27.80;69.20;;;;;;8263768;28;21010;-77
2021/09/18 13:52:01;;;;;;;18.27;13.87;;;28.00;69.50;;;;;;8268933;28;20460;-77
2021/09/18 13:56:01;;;;;;;20.63;14.73;;;28.20;69.40;;;;;;8237505;28;20193;-78
2021/09/18 14:00:02;;;;;;;18.33;15.17;;;28.40;68.50;;;;;;8239204;28;20417;-77
2021/09/18 14:04:04;;;;;;;17.60;14.13;;;28.70;67.00;;;;;;8249866;28;20178;-78
2021/09/18 14:08:05;;;;;;;14.20;12.57;;;28.50;66.50;;;;;;8255842;28;20990;-77
2021/09/18 14:12:06;;;;;;;15.57;13.97;;;28.10;68.20;;;;;;8290871;28;20435;-77
2021/09/18 14:16:07;;;;;;;14.17;12.33;;;28.00;67.90;;;;;;8264017;28;20444;-77
2021/09/18 14:20:07;;;;;;;14.30;12.67;;;28.20;66.70;;;;;;8254327;28;20170;-77
2021/09/18 14:24:08;;;;;;;14.40;11.60;;;28.30;65.30;;;;;;8297612;28;20180;-77
2021/09/18 14:28:09;;;;;;;17.73;13.40;;;28.30;66.30;;;;;;8271890;28;20177;-81
2021/09/18 14:32:09;;;;;;;14.30;12.57;;;28.60;66.90;;;;;;8275988;28;20264;-83
2021/09/18 14:36:10;;;;;;;30.03;21.57;;;28.70;67.30;;;;;;8272446;28;20656;-88
2021/09/18 14:40:12;;;;;;;40.13;24.63;;;28.70;65.60;;;;;;8275278;28;20172;-86
2021/09/18 14:44:13;;;;;;;30.80;17.50;;;28.50;66.20;;;;;;8305972;28;20196;-77
2021/09/18 14:48:13;;;;;;;19.03;13.83;;;28.30;67.30;;;;;;8305307;28;20756;-78
2021/09/18 14:52:14;;;;;;;16.50;14.47;;;28.20;67.60;;;;;;8288470;28;20290;-77
2021/09/18 14:56:14;;;;;;;18.30;12.80;;;28.00;67.80;;;;;;8278863;28;20613;-78
2021/09/18 15:00:15;;;;;;;12.53;11.10;;;27.90;67.40;;;;;;8271710;28;20177;-80
2021/09/18 15:04:16;;;;;;;18.73;13.03;;;27.90;67.00;;;;;;8273396;28;20204;-77
2021/09/18 15:08:17;;;;;;;18.43;13.17;;;27.90;66.80;;;;;;8271083;28;20201;-77
2021/09/18 15:12:17;;;;;;;9.40;8.30;;;27.80;65.90;;;;;;8275074;28;20193;-79
2021/09/18 15:16:19;;;;;;;7.63;6.87;;;27.70;65.00;;;;;;8276097;28;20181;-77
2021/09/18 15:20:19;;;;;;;11.57;7.90;;;27.50;64.60;;;;;;8251915;28;20494;-77
2021/09/18 15:24:20;;;;;;;9.90;7.47;;;27.30;65.20;;;;;;8267094;28;20424;-76
2021/09/18 15:28:23;;;;;;;7.57;6.87;;;27.00;65.10;;;;;;8269186;28;20169;-76
2021/09/18 15:32:24;;;;;;;8.47;7.67;;;26.70;66.30;;;;;;8251515;28;20432;-76
2021/09/18 15:36:25;;;;;;;12.97;8.47;;;26.60;66.90;;;;;;8253654;28;20515;-77
2021/09/18 15:40:28;;;;;;;10.90;8.30;;;26.60;67.60;;;;;;8267477;28;20199;-76
2021/09/18 15:44:29;;;;;;;10.03;8.47;;;26.60;67.20;;;;;;8267672;28;20233;-77
2021/09/18 15:48:30;;;;;;;8.90;7.73;;;26.60;67.20;;;;;;8266871;28;20427;-77
2021/09/18 15:52:30;;;;;;;11.60;9.90;;;26.50;67.50;;;;;;8242411;28;20244;-77
2021/09/18 15:56:31;;;;;;;8.43;7.63;;;26.50;66.90;;;;;;8222470;28;20188;-77
2021/09/18 16:00:32;;;;;;;8.80;7.90;;;26.30;67.70;;;;;;8240036;28;20193;-77
2021/09/18 16:04:32;;;;;;;11.67;10.03;;;26.20;67.40;;;;;;8222067;28;20649;-77
2021/09/18 16:08:33;;;;;;;71.40;63.60;;;26.00;67.80;;;;;;8239865;28;20174;-78
2021/09/18 16:12:33;;;;;;;19.17;17.17;;;25.90;68.60;;;;;;8221879;28;20170;-78
2021/09/18 16:16:34;;;;;;;13.47;9.80;;;25.60;68.30;;;;;;8244434;28;20241;-76
2021/09/18 16:20:35;;;;;;;10.97;9.70;;;25.40;68.80;;;;;;8244723;28;20182;-78
2021/09/18 16:24:39;;;;;;;11.40;10.20;;;25.30;69.50;;;;;;8227243;28;20795;-77
2021/09/18 16:28:39;;;;;;;12.83;10.80;;;25.00;70.20;;;;;;8256717;28;20257;-78
2021/09/18 16:32:41;;;;;;;13.30;11.90;;;24.80;70.00;;;;;;8246165;28;20409;-77
2021/09/18 16:36:42;;;;;;;18.03;12.23;;;24.60;72.00;;;;;;8242228;28;20185;-77
2021/09/18 16:40:43;;;;;;;16.43;13.67;;;24.40;74.30;;;;;;8244429;28;20407;-77
2021/09/18 16:44:43;;;;;;;15.97;11.93;;;24.20;74.70;;;;;;8256611;28;20575;-77
2021/09/18 16:48:44;;;;;;;14.50;12.27;;;23.90;75.90;;;;;;8261640;28;20644;-77
2021/09/18 16:52:45;;;;;;;15.83;14.03;;;23.70;75.90;;;;;;8254090;28;20221;-78
2021/09/18 16:56:45;;;;;;;17.30;14.23;;;23.60;77.10;;;;;;8267400;28;20655;-77
2021/09/18 17:00:46;;;;;;;18.87;13.27;;;23.30;78.60;;;;;;8270812;28;20173;-77
2021/09/18 17:04:47;;;;;;;23.63;14.33;;;23.10;79.80;;;;;;8255764;28;20212;-77
2021/09/18 17:08:48;;;;;;;18.23;15.20;;;22.90;80.50;;;;;;8274793;28;20177;-78
2021/09/18 17:12:49;;;;;;;18.60;16.50;;;22.70;80.50;;;;;;8275578;28;20430;-78
2021/09/18 17:16:49;;;;;;;19.50;15.60;;;22.50;82.90;;;;;;8277504;28;20177;-78
2021/09/18 17:20:50;;;;;;;17.40;15.10;;;22.30;82.50;;;;;;8274768;28;20232;-78
2021/09/18 17:24:51;;;;;;;15.53;13.10;;;22.10;83.20;;;;;;8283643;28;20262;-78
2021/09/18 17:28:52;;;;;;;17.63;13.20;;;22.00;84.30;;;;;;8243039;28;20192;-77
2021/09/18 17:32:52;;;;;;;17.57;15.20;;;21.80;86.20;;;;;;8243513;28;20413;-78
2021/09/18 17:36:53;;;;;;;18.97;15.80;;;21.60;87.50;;;;;;8243530;28;20188;-78
2021/09/18 17:40:54;;;;;;;19.30;15.13;;;21.40;89.00;;;;;;8244094;28;20177;-78
2021/09/18 17:44:55;;;;;;;19.03;16.83;;;21.20;90.30;;;;;;8246077;28;20204;-78
2021/09/18 17:48:56;;;;;;;20.93;17.60;;;21.00;90.70;;;;;;8244063;28;20199;-77
2021/09/18 17:52:57;;;;;;;22.90;17.03;;;20.80;91.30;;;;;;8241555;28;20632;-77
2021/09/18 17:56:57;;;;;;;26.70;19.33;;;20.60;91.60;;;;;;8241586;28;20183;-78
2021/09/18 18:00:58;;;;;;;31.00;18.97;;;20.50;92.10;;;;;;8243072;28;20180;-78
2021/09/18 18:05:00;;;;;;;29.40;20.33;;;20.30;92.30;;;;;;8240450;28;20279;-78
2021/09/18 18:09:01;;;;;;;31.43;20.20;;;20.20;92.70;;;;;;8242359;28;20274;-78
2021/09/18 18:13:01;;;;;;;29.97;21.27;;;20.10;93.00;;;;;;8243110;28;20514;-79
2021/09/18 18:17:02;;;;;;;30.13;21.80;;;20.00;93.50;;;;;;8262473;28;20192;-77
2021/09/18 18:21:03;;;;;;;32.27;22.37;;;19.90;93.80;;;;;;8234309;28;20181;-77
2021/09/18 18:25:06;;;;;;;30.53;21.90;;;19.70;93.80;;;;;;8249635;28;20699;-81
2021/09/18 18:29:07;;;;;;;36.20;23.87;;;19.60;94.30;;;;;;8271704;28;20226;-78
2021/09/18 18:33:07;;;;;;;39.77;24.23;;;19.50;94.60;;;;;;8255487;28;20428;-78
2021/09/18 18:37:08;;;;;;;37.30;25.67;;;19.40;95.00;;;;;;8260214;28;20177;-78
2021/09/18 18:41:09;;;;;;;30.10;21.33;;;19.20;95.30;;;;;;8273735;28;20173;-78
2021/09/18 18:45:10;;;;;;;30.60;23.73;;;19.10;95.50;;;;;;8271643;28;20247;-78
2021/09/18 18:49:11;;;;;;;36.50;24.60;;;19.00;95.40;;;;;;8289572;28;20212;-77
2021/09/18 18:53:12;;;;;;;33.70;24.67;;;18.90;95.80;;;;;;8288053;28;20409;-78
2021/09/18 18:57:12;;;;;;;43.90;31.90;;;18.80;96.00;;;;;;8259171;28;20177;-77
2021/09/18 19:01:14;;;;;;;48.37;33.17;;;18.70;96.30;;;;;;8274499;28;20435;-77
2021/09/18 19:05:15;;;;;;;35.60;28.23;;;18.60;96.50;;;;;;8256409;28;20311;-77
2021/09/18 19:09:16;;;;;;;34.07;27.60;;;18.50;96.60;;;;;;8274164;28;20902;-77
2021/09/18 19:13:17;;;;;;;37.80;29.27;;;18.40;96.60;;;;;;8289429;28;20475;-78
2021/09/18 19:17:18;;;;;;;41.90;28.97;;;18.30;97.00;;;;;;8272838;28;20176;-78
2021/09/18 19:21:18;;;;;;;36.10;28.10;;;18.20;97.20;;;;;;8295856;28;20183;-78
2021/09/18 19:25:19;;;;;;;34.20;27.10;;;18.10;97.30;;;;;;8262055;28;20204;-78
2021/09/18 19:29:20;;;;;;;36.60;25.70;;;18.00;97.60;;;;;;8284103;28;20195;-77
2021/09/18 19:33:20;;;;;;;34.23;25.30;;;17.90;97.90;;;;;;8278736;28;20180;-78
2021/09/18 19:37:21;;;;;;;31.00;23.30;;;17.80;98.20;;;;;;8280440;28;20446;-78
2021/09/18 19:41:22;;;;;;;31.50;25.30;;;17.70;98.40;;;;;;8293655;28;20299;-77
2021/09/18 19:45:23;;;;;;;38.20;26.77;;;17.60;98.70;;;;;;8251382;28;20207;-76
2021/09/18 19:49:26;;;;;;;38.33;27.13;;;17.60;98.80;;;;;;8269163;28;20227;-77
2021/09/18 19:53:27;;;;;;;39.00;29.20;;;17.50;99.00;;;;;;8287569;28;20463;-77
2021/09/18 19:57:28;;;;;;;47.37;32.33;;;17.40;99.30;;;;;;8256097;28;20481;-77
2021/09/18 20:01:28;;;;;;;45.10;34.53;;;17.30;99.50;;;;;;8256236;28;20430;-78
2021/09/18 20:05:29;;;;;;;39.13;31.53;;;17.30;99.70;;;;;;8283720;28;20229;-77
2021/09/18 20:09:30;;;;;;;42.80;31.13;;;17.20;99.60;;;;;;8272224;28;20204;-77
2021/09/18 20:13:30;;;;;;;43.73;33.00;;;17.20;99.70;;;;;;8273469;28;20179;-77
2021/09/18 20:17:31;;;;;;;46.83;32.03;;;17.10;99.80;;;;;;8278449;28;20200;-78
2021/09/18 20:21:32;;;;;;;37.43;30.30;;;17.10;99.90;;;;;;8295813;28;20180;-77
2021/09/18 20:25:33;;;;;;;46.53;35.00;;;17.00;99.90;;;;;;8289916;28;20466;-78
2021/09/18 20:29:33;;;;;;;51.33;35.43;;;17.00;99.90;;;;;;8286049;28;20239;-78